Time;durP1;ratioP1;P1;durP2;ratioP2;P2;SDS_P1;SDS_P2;PMS_P1;PMS_P2;Temp;Humidity;BMP_temperature;BMP_pressure;BME280_temperature;BME280_humidity;BME280_pressure;Samples;Min_cycle;Max_cycle;Signal;HPM_P1;HPM_P2
2021/12/15 00:00:44;;;;;;;37.17;8.40;;;2.10;99.90;;;;;;2089240;28;20728;-71
2021/12/15 00:01:46;;;;;;;87.93;13.95;;;2.10;99.90;;;;;;2089225;28;20715;-71
2021/12/15 00:02:51;;;;;;;42.92;8.85;;;2.10;99.90;;;;;;2089379;28;20203;-71
2021/12/15 00:03:52;;;;;;;28.35;7.50;;;2.20;99.90;;;;;;2097001;28;20713;-71
2021/12/15 00:04:55;;;;;;;24.27;7.57;;;2.20;99.90;;;;;;2089606;28;20183;-71
2021/12/15 00:05:56;;;;;;;24.30;7.38;;;2.20;99.90;;;;;;2089772;28;20213;-71
2021/12/15 00:06:57;;;;;;;43.13;8.48;;;2.20;99.90;;;;;;2089257;28;20182;-70
2021/12/15 00:08:03;;;;;;;41.40;9.93;;;2.20;99.90;;;;;;2089223;28;20183;-71
2021/12/15 00:09:11;;;;;;;38.47;9.65;;;2.20;99.90;;;;;;2089312;28;20161;-71
2021/12/15 00:10:12;;;;;;;49.63;9.73;;;2.20;99.90;;;;;;2082079;28;20272;-71
2021/12/15 00:11:13;;;;;;;42.43;8.53;;;2.20;99.90;;;;;;2089413;28;20181;-71
2021/12/15 00:12:16;;;;;;;49.20;9.23;;;2.20;99.90;;;;;;2089907;28;20187;-71
2021/12/15 00:13:20;;;;;;;61.17;10.57;;;2.20;99.90;;;;;;2088388;28;20275;-71
2021/12/15 00:14:20;;;;;;;67.03;10.10;;;2.20;99.90;;;;;;2088387;28;20210;-70
2021/12/15 00:15:23;;;;;;;89.50;13.40;;;2.10;99.90;;;;;;2088326;28;20223;-71
2021/12/15 00:16:24;;;;;;;69.03;11.60;;;2.10;99.90;;;;;;2080382;28;20274;-71
2021/12/15 00:17:24;;;;;;;36.77;8.90;;;2.10;99.90;;;;;;2080578;28;20184;-71
2021/12/15 00:18:25;;;;;;;56.17;9.80;;;2.10;99.90;;;;;;2089068;28;20195;-71
2021/12/15 00:19:27;;;;;;;24.70;7.30;;;2.10;99.90;;;;;;2089160;28;20190;-71
2021/12/15 00:20:29;;;;;;;73.35;11.65;;;2.10;99.90;;;;;;2089284;28;20271;-71
2021/12/15 00:21:30;;;;;;;22.75;7.28;;;2.10;99.90;;;;;;2089305;28;20187;-72
2021/12/15 00:22:31;;;;;;;52.80;9.90;;;2.20;99.90;;;;;;2089982;28;20624;-71
2021/12/15 00:23:32;;;;;;;102.23;11.60;;;2.20;99.90;;;;;;2089337;28;20277;-71
2021/12/15 00:24:33;;;;;;;63.13;10.03;;;2.20;99.90;;;;;;2080329;28;20180;-70
2021/12/15 00:25:38;;;;;;;81.50;11.85;;;2.10;99.90;;;;;;2088788;28;20307;-70
2021/12/15 00:26:39;;;;;;;46.42;7.43;;;2.10;99.90;;;;;;2089317;28;20256;-70
2021/12/15 00:27:40;;;;;;;83.80;11.23;;;2.00;99.90;;;;;;2089231;28;20180;-70
2021/12/15 00:28:42;;;;;;;23.40;7.47;;;2.00;99.90;;;;;;2089117;28;20258;-70
2021/12/15 00:29:43;;;;;;;68.80;11.45;;;2.00;99.90;;;;;;2089297;28;20180;-70
2021/12/15 00:30:44;;;;;;;14.80;5.63;;;2.10;99.90;;;;;;2089172;28;20556;-70
2021/12/15 00:31:46;;;;;;;42.55;9.20;;;2.10;99.90;;;;;;2088995;28;20232;-70
2021/12/15 00:32:48;;;;;;;17.73;6.40;;;2.20;99.90;;;;;;2089107;28;20242;-70
2021/12/15 00:33:49;;;;;;;16.50;7.03;;;2.20;99.90;;;;;;2089238;28;20609;-71
2021/12/15 00:34:51;;;;;;;34.42;9.00;;;2.20;99.90;;;;;;2088886;28;20244;-70
2021/12/15 00:35:54;;;;;;;15.70;6.05;;;2.30;99.90;;;;;;2089063;28;20209;-71
2021/12/15 00:36:55;;;;;;;9.55;5.00;;;2.40;99.90;;;;;;2081283;28;20739;-70
2021/12/15 00:37:56;;;;;;;26.33;6.70;;;2.40;99.90;;;;;;2088888;28;20175;-71
2021/12/15 00:38:56;;;;;;;39.42;8.93;;;2.40;99.90;;;;;;2089763;28;20183;-71
2021/12/15 00:39:57;;;;;;;26.30;7.67;;;2.40;99.90;;;;;;2089724;28;20176;-71
2021/12/15 00:40:58;;;;;;;13.80;5.73;;;2.40;99.90;;;;;;2089857;28;20203;-71
2021/12/15 00:42:00;;;;;;;30.03;6.23;;;2.30;99.90;;;;;;2089157;28;20232;-71
2021/12/15 00:43:02;;;;;;;29.27;7.80;;;2.20;99.90;;;;;;2081288;28;20213;-70
2021/12/15 00:44:03;;;;;;;51.00;9.02;;;2.20;99.90;;;;;;2089195;28;20183;-70
2021/12/15 00:45:06;;;;;;;30.17;9.35;;;2.20;99.90;;;;;;2089624;28;20199;-70
2021/12/15 00:46:07;;;;;;;25.95;6.50;;;2.20;99.90;;;;;;2088929;28;20190;-71
2021/12/15 00:47:09;;;;;;;31.48;7.20;;;2.20;99.90;;;;;;2088901;28;20203;-70
2021/12/15 00:48:10;;;;;;;28.90;7.45;;;2.30;99.90;;;;;;2088904;28;20277;-71
2021/12/15 00:49:12;;;;;;;36.13;6.63;;;2.20;99.90;;;;;;2089122;28;20184;-71
2021/12/15 00:50:18;;;;;;;43.63;8.60;;;2.20;99.90;;;;;;2089208;28;20218;-71
2021/12/15 00:51:18;;;;;;;42.28;8.82;;;2.20;99.90;;;;;;2088957;28;20306;-70
2021/12/15 00:52:19;;;;;;;16.33;5.73;;;2.20;99.90;;;;;;2089608;28;20564;-71
2021/12/15 00:53:20;;;;;;;37.33;6.43;;;2.20;99.90;;;;;;2089743;28;20263;-71
2021/12/15 00:54:22;;;;;;;59.33;10.53;;;2.30;99.90;;;;;;2089634;28;20599;-70
2021/12/15 00:55:26;;;;;;;26.10;7.35;;;2.30;99.90;;;;;;2088895;28;20222;-70
2021/12/15 00:56:28;;;;;;;31.55;9.90;;;2.40;99.90;;;;;;2088974;28;20742;-70
2021/12/15 00:57:28;;;;;;;77.78;11.45;;;2.40;99.90;;;;;;2080926;28;20177;-71
2021/12/15 00:58:29;;;;;;;130.07;13.73;;;2.40;99.90;;;;;;2088908;28;20202;-71
2021/12/15 00:59:31;;;;;;;151.70;15.70;;;2.40;99.90;;;;;;2089146;28;20187;-71
2021/12/15 01:00:48;;;;;;;67.85;11.13;;;2.40;99.90;;;;;;2088965;28;20199;-71
2021/12/15 01:01:50;;;;;;;62.67;8.70;;;2.40;99.90;;;;;;2089794;28;20289;-71
2021/12/15 01:02:52;;;;;;;36.60;7.95;;;2.40;99.90;;;;;;2088995;28;20174;-71
2021/12/15 01:03:54;;;;;;;16.48;4.97;;;2.50;99.90;;;;;;2089096;28;20182;-71
2021/12/15 01:04:55;;;;;;;105.15;12.93;;;2.50;99.90;;;;;;2088884;28;20241;-71
2021/12/15 01:06:03;;;;;;;100.07;12.30;;;2.50;99.90;;;;;;2088958;28;20671;-71
2021/12/15 01:07:08;;;;;;;71.85;9.20;;;2.40;99.90;;;;;;2089272;28;20166;-71
2021/12/15 01:08:16;;;;;;;59.60;9.65;;;2.30;99.90;;;;;;2081694;28;20171;-71
2021/12/15 01:09:26;;;;;;;47.58;9.50;;;2.30;99.90;;;;;;2089001;28;20266;-71
2021/12/15 01:10:32;;;;;;;15.88;5.57;;;2.30;99.90;;;;;;2081975;28;20183;-71
2021/12/15 01:20:47;;;;;;;37.42;7.82;;;2.30;99.90;;;;;;2085889;28;20166;-71
2021/12/15 01:21:49;;;;;;;27.55;5.70;;;2.30;99.90;;;;;;2085514;28;20166;-70
2021/12/15 01:22:53;;;;;;;42.40;6.82;;;2.40;99.90;;;;;;2080650;28;20199;-71
2021/12/15 01:23:54;;;;;;;46.15;7.47;;;2.40;99.90;;;;;;2080788;28;20179;-71
2021/12/15 01:25:07;;;;;;;78.73;12.70;;;2.40;99.90;;;;;;2080575;28;20725;-70
2021/12/15 01:26:13;;;;;;;31.02;7.00;;;2.40;99.90;;;;;;2081379;28;20167;-70
2021/12/15 01:27:14;;;;;;;48.28;8.63;;;2.40;99.90;;;;;;2081130;28;20168;-70
2021/12/15 01:28:15;;;;;;;61.05;8.88;;;2.40;99.90;;;;;;2081196;28;20548;-70
2021/12/15 01:29:16;;;;;;;51.23;10.43;;;2.40;99.90;;;;;;2080517;28;20191;-70
2021/12/15 01:30:21;;;;;;;30.25;7.88;;;2.50;99.90;;;;;;2080596;28;20242;-70
2021/12/15 01:31:22;;;;;;;42.22;9.68;;;2.50;99.90;;;;;;2072978;28;20192;-70
2021/12/15 01:32:22;;;;;;;10.93;5.07;;;2.50;99.90;;;;;;2080737;28;20179;-70
2021/12/15 01:33:25;;;;;;;17.63;5.43;;;2.50;99.90;;;;;;2081293;28;20714;-70
2021/12/15 01:34:26;;;;;;;40.95;7.95;;;2.50;99.90;;;;;;2081201;28;20174;-70
2021/12/15 01:35:32;;;;;;;50.87;9.50;;;2.50;99.90;;;;;;2080361;28;20270;-70
2021/12/15 01:36:33;;;;;;;14.13;5.45;;;2.50;99.90;;;;;;2081351;28;20217;-70
2021/12/15 01:37:34;;;;;;;31.90;6.60;;;2.50;99.90;;;;;;2073811;28;20245;-70
2021/12/15 01:38:38;;;;;;;34.67;7.40;;;2.50;99.90;;;;;;2073869;28;20208;-70
2021/12/15 01:39:40;;;;;;;56.17;10.40;;;2.50;99.90;;;;;;2082096;28;20429;-70
2021/12/15 01:40:44;;;;;;;13.70;5.18;;;2.50;99.90;;;;;;2082145;28;20177;-70
2021/12/15 01:41:45;;;;;;;25.88;6.22;;;2.50;99.90;;;;;;2082414;28;20647;-70
2021/12/15 01:42:46;;;;;;;20.55;6.22;;;2.50;99.90;;;;;;2090012;28;20173;-70
2021/12/15 01:47:46;;;;;;;43.85;9.63;;;2.40;99.90;;;;;;2082637;28;20173;-70
2021/12/15 01:49:06;;;;;;;47.93;7.20;;;2.40;99.90;;;;;;2081860;28;20296;-70
2021/12/15 01:50:08;;;;;;;25.33;6.72;;;2.50;99.90;;;;;;2076290;28;20179;-70
2021/12/15 01:51:11;;;;;;;26.05;6.22;;;2.40;99.90;;;;;;2074042;28;20180;-70
2021/12/15 01:52:18;;;;;;;26.70;8.32;;;2.50;99.90;;;;;;2074276;28;20176;-70
2021/12/15 01:53:19;;;;;;;26.13;6.57;;;2.50;99.90;;;;;;2082090;28;20186;-70
2021/12/15 01:54:23;;;;;;;20.13;6.97;;;2.50;99.90;;;;;;2073688;28;20175;-70
2021/12/15 01:55:25;;;;;;;25.92;7.40;;;2.50;99.90;;;;;;2081551;28;20210;-70
2021/12/15 01:56:27;;;;;;;22.88;5.22;;;2.50;99.90;;;;;;2081745;28;20633;-70
2021/12/15 01:57:31;;;;;;;17.27;5.30;;;2.50;99.90;;;;;;2082730;28;20255;-70
2021/12/15 01:58:32;;;;;;;55.72;9.60;;;2.50;99.90;;;;;;2089805;28;20261;-70
2021/12/15 01:59:34;;;;;;;23.35;7.03;;;2.50;99.90;;;;;;2090152;28;20203;-70
2021/12/15 02:00:43;;;;;;;27.20;7.70;;;2.50;99.90;;;;;;2082075;28;20183;-70
2021/12/15 02:01:44;;;;;;;19.10;5.90;;;2.50;99.90;;;;;;2090386;28;20173;-70
2021/12/15 02:02:45;;;;;;;44.07;10.20;;;2.50;99.90;;;;;;2090143;28;20182;-70
2021/12/15 02:03:47;;;;;;;31.77;8.45;;;2.50;99.90;;;;;;2081951;28;20460;-70
2021/12/15 02:04:50;;;;;;;39.95;7.72;;;2.50;99.90;;;;;;2081727;28;20213;-70
2021/12/15 02:05:51;;;;;;;32.15;6.30;;;2.50;99.90;;;;;;2082021;28;20722;-70
2021/12/15 02:06:52;;;;;;;54.35;9.52;;;2.50;99.90;;;;;;2081646;28;20213;-70
2021/12/15 02:07:53;;;;;;;94.20;11.82;;;2.50;99.90;;;;;;2081847;28;20184;-70
2021/12/15 02:08:54;;;;;;;58.07;10.13;;;2.60;99.90;;;;;;2089905;28;20178;-70
2021/12/15 02:10:59;;;;;;;27.60;5.13;;;2.50;99.90;;;;;;2090281;28;20186;-70
2021/12/15 02:12:00;;;;;;;37.80;8.53;;;2.50;99.90;;;;;;2090566;28;20174;-70
2021/12/15 02:13:06;;;;;;;44.10;6.50;;;2.60;99.90;;;;;;2090605;28;20169;-70
2021/12/15 02:14:07;;;;;;;41.58;6.35;;;2.60;99.90;;;;;;2090588;28;20170;-70
2021/12/15 02:15:17;;;;;;;38.22;7.22;;;2.60;99.90;;;;;;2089648;28;20214;-71
2021/12/15 02:16:18;;;;;;;71.53;7.75;;;2.60;99.90;;;;;;2082928;28;20649;-70
2021/12/15 02:17:20;;;;;;;49.47;7.45;;;2.60;99.90;;;;;;2081539;28;20175;-71
2021/12/15 02:18:31;;;;;;;24.77;5.38;;;2.60;99.90;;;;;;2090062;28;20197;-70
2021/12/15 02:19:32;;;;;;;18.45;5.18;;;2.50;99.90;;;;;;2090699;28;20163;-70
2021/12/15 02:20:45;;;;;;;27.80;5.55;;;2.50;99.90;;;;;;2090507;28;20184;-70
2021/12/15 02:21:45;;;;;;;36.00;6.68;;;2.50;99.90;;;;;;2090503;28;20178;-70
2021/12/15 02:22:46;;;;;;;28.43;6.67;;;2.50;99.90;;;;;;2090391;28;20186;-70
2021/12/15 02:23:54;;;;;;;47.75;5.85;;;2.50;99.90;;;;;;2089752;28;20182;-70
2021/12/15 02:24:55;;;;;;;18.77;3.50;;;2.60;99.90;;;;;;2082523;28;20213;-70
2021/12/15 02:25:56;;;;;;;61.22;6.40;;;2.60;99.90;;;;;;2082022;28;20180;-69
2021/12/15 02:27:00;;;;;;;22.38;4.50;;;2.60;99.90;;;;;;2081536;28;20196;-70
2021/12/15 02:28:02;;;;;;;34.08;5.25;;;2.60;99.90;;;;;;2081936;28;20179;-70
2021/12/15 02:29:15;;;;;;;24.05;4.95;;;2.60;99.90;;;;;;2082162;28;20675;-69
2021/12/15 02:31:13;;;;;;;17.27;4.35;;;2.50;99.90;;;;;;2083246;28;20224;-69
2021/12/15 02:33:12;;;;;;;10.75;4.05;;;2.50;99.90;;;;;;2085615;28;20208;-69
2021/12/15 02:38:00;;;;;;;20.70;4.43;;;2.60;99.90;;;;;;2090289;28;20165;-69
2021/12/15 02:39:06;;;;;;;13.30;3.60;;;2.70;99.90;;;;;;2090318;28;20191;-69
2021/12/15 02:40:15;;;;;;;24.27;4.93;;;2.60;99.90;;;;;;2089706;28;20163;-69
2021/12/15 02:41:20;;;;;;;67.95;9.38;;;2.60;99.90;;;;;;2090025;28;20213;-70
2021/12/15 02:42:40;;;;;;;84.45;11.45;;;2.60;99.90;;;;;;2089656;28;20707;-70
2021/12/15 02:43:40;;;;;;;30.27;6.15;;;2.50;99.90;;;;;;2084564;28;20246;-70
2021/12/15 02:44:43;;;;;;;52.63;8.77;;;2.50;99.90;;;;;;2089468;28;20209;-70
2021/12/15 02:45:44;;;;;;;83.70;13.65;;;2.60;99.90;;;;;;2090231;28;20654;-70
2021/12/15 02:46:47;;;;;;;66.93;12.60;;;2.60;99.90;;;;;;2090154;28;20195;-70
2021/12/15 02:47:48;;;;;;;40.40;8.98;;;2.60;99.90;;;;;;2089123;28;20274;-70
2021/12/15 02:48:50;;;;;;;39.85;10.02;;;2.70;99.90;;;;;;2089086;28;20201;-70
2021/12/15 02:49:54;;;;;;;23.42;5.47;;;2.70;99.90;;;;;;2090196;28;20225;-70
2021/12/15 02:50:55;;;;;;;40.50;6.22;;;2.70;99.90;;;;;;2090325;28;20194;-70
2021/12/15 02:51:59;;;;;;;19.63;5.72;;;2.70;99.90;;;;;;2090316;28;20209;-70
2021/12/15 02:53:00;;;;;;;22.35;5.88;;;2.70;99.90;;;;;;2089463;28;20183;-70
2021/12/15 02:54:01;;;;;;;32.63;8.20;;;2.70;99.90;;;;;;2081356;28;20180;-70
2021/12/15 02:55:04;;;;;;;58.30;8.60;;;2.70;99.90;;;;;;2089285;28;20217;-70
2021/12/15 02:56:07;;;;;;;34.65;6.80;;;2.70;99.90;;;;;;2089623;28;20258;-70
2021/12/15 02:57:11;;;;;;;42.63;7.68;;;2.70;99.90;;;;;;2089482;28;20186;-70
2021/12/15 02:58:12;;;;;;;60.45;9.00;;;2.70;99.90;;;;;;2090281;28;20280;-70
2021/12/15 02:59:16;;;;;;;31.63;6.10;;;2.60;99.90;;;;;;2089338;28;20178;-70
2021/12/15 03:00:36;;;;;;;63.10;9.50;;;2.60;99.90;;;;;;2081586;28;20539;-70
2021/12/15 03:04:45;;;;;;;36.65;5.47;;;2.60;99.90;;;;;;2090034;28;20165;-70
2021/12/15 03:05:51;;;;;;;60.28;6.57;;;2.60;99.90;;;;;;2089981;28;20183;-70
2021/12/15 03:08:17;;;;;;;47.67;7.20;;;2.50;99.90;;;;;;2084334;28;20647;-70
2021/12/15 03:16:00;;;;;;;33.30;7.13;;;2.60;99.90;;;;;;2086476;28;20180;-70
2021/12/15 03:17:01;;;;;;;25.90;5.93;;;2.60;99.90;;;;;;2089601;28;20699;-70
2021/12/15 03:18:12;;;;;;;22.33;6.23;;;2.60;99.90;;;;;;2089978;28;20183;-70
2021/12/15 03:19:13;;;;;;;32.80;6.15;;;2.60;99.90;;;;;;2088959;28;20166;-70
2021/12/15 03:20:16;;;;;;;9.32;3.90;;;2.60;99.90;;;;;;2081072;28;20206;-70
2021/12/15 03:21:23;;;;;;;40.95;8.50;;;2.60;99.90;;;;;;2089420;28;20185;-70
2021/12/15 03:22:24;;;;;;;53.10;7.35;;;2.60;99.90;;;;;;2089397;28;20168;-70
2021/12/15 03:23:41;;;;;;;13.73;4.50;;;2.70;99.90;;;;;;2081301;28;20563;-70
2021/12/15 03:24:42;;;;;;;98.70;10.85;;;2.60;99.90;;;;;;2089528;28;20643;-70
2021/12/15 03:25:43;;;;;;;17.30;4.33;;;2.60;99.90;;;;;;2089918;28;20185;-70
2021/12/15 03:26:55;;;;;;;103.47;11.47;;;2.70;99.90;;;;;;2089119;28;20634;-70
2021/12/15 03:36:06;;;;;;;43.50;7.00;;;2.70;99.90;;;;;;2089851;28;20175;-70
2021/12/15 03:37:23;;;;;;;70.40;10.27;;;2.70;99.90;;;;;;2089717;28;20258;-70
2021/12/15 03:38:24;;;;;;;70.50;13.48;;;2.70;99.90;;;;;;2089766;28;20517;-70
2021/12/15 03:39:31;;;;;;;48.20;7.37;;;2.70;99.90;;;;;;2089183;28;20274;-70
2021/12/15 03:40:40;;;;;;;50.45;7.88;;;2.70;99.90;;;;;;2082062;28;20166;-70
2021/12/15 03:41:41;;;;;;;36.45;6.85;;;2.70;99.90;;;;;;2089377;28;20166;-70
2021/12/15 03:42:55;;;;;;;37.37;7.27;;;2.70;99.90;;;;;;2097193;28;20181;-70
2021/12/15 03:43:55;;;;;;;70.55;7.07;;;2.70;99.90;;;;;;2089221;28;20692;-70
2021/12/15 03:44:59;;;;;;;126.97;9.87;;;2.70;99.90;;;;;;2089048;28;20474;-70
2021/12/15 03:46:15;;;;;;;81.95;9.35;;;2.70;99.90;;;;;;2089210;28;20183;-70
2021/12/15 03:47:25;;;;;;;48.30;6.05;;;2.70;99.90;;;;;;2082810;28;20708;-70
2021/12/15 03:48:30;;;;;;;37.08;4.97;;;2.70;99.90;;;;;;2089005;28;20218;-70
2021/12/15 03:49:30;;;;;;;117.50;13.60;;;2.70;99.90;;;;;;2081406;28;20229;-70
2021/12/15 03:50:32;;;;;;;66.47;8.63;;;2.70;99.90;;;;;;2089266;28;20657;-70
2021/12/15 03:51:32;;;;;;;25.67;4.15;;;2.70;99.90;;;;;;2089196;28;20605;-70
2021/12/15 03:52:34;;;;;;;47.20;7.73;;;2.70;99.90;;;;;;2089095;28;20184;-70
2021/12/15 03:53:35;;;;;;;60.92;7.47;;;2.70;99.90;;;;;;2089641;28;20263;-70
2021/12/15 03:54:36;;;;;;;68.47;8.10;;;2.70;99.90;;;;;;2088727;28;20229;-70
2021/12/15 03:55:39;;;;;;;51.22;7.00;;;2.60;99.90;;;;;;2080679;28;20210;-70
2021/12/15 03:56:42;;;;;;;157.88;13.30;;;2.60;99.90;;;;;;2089242;28;20185;-70
2021/12/15 03:57:42;;;;;;;53.97;6.70;;;2.60;99.90;;;;;;2089101;28;20183;-70
2021/12/15 03:58:46;;;;;;;74.47;8.43;;;2.60;99.90;;;;;;2089026;28;20208;-70
2021/12/15 03:59:48;;;;;;;62.15;6.97;;;2.60;99.90;;;;;;2080977;28;20262;-70
2021/12/15 04:01:00;;;;;;;42.58;5.40;;;2.60;99.90;;;;;;2089267;28;20726;-70
2021/12/15 04:02:01;;;;;;;60.63;7.25;;;2.60;99.90;;;;;;2089206;28;20178;-70
2021/12/15 04:03:02;;;;;;;81.65;7.90;;;2.60;99.90;;;;;;2089139;28;20225;-70
2021/12/15 04:04:04;;;;;;;78.07;8.13;;;2.60;99.90;;;;;;2089606;28;20229;-70
2021/12/15 04:05:07;;;;;;;37.88;6.85;;;2.60;99.90;;;;;;2088861;28;20726;-70
2021/12/15 04:06:15;;;;;;;72.75;7.70;;;2.60;99.90;;;;;;2088981;28;20741;-70
2021/12/15 04:07:18;;;;;;;67.15;7.28;;;2.60;99.90;;;;;;2089426;28;20631;-70
2021/12/15 04:08:19;;;;;;;72.32;8.68;;;2.60;99.90;;;;;;2081246;28;20207;-70
2021/12/15 04:09:20;;;;;;;33.67;5.15;;;2.60;99.90;;;;;;2089181;28;20621;-70
2021/12/15 04:10:25;;;;;;;61.00;6.30;;;2.60;99.90;;;;;;2089687;28;20235;-70
2021/12/15 04:11:33;;;;;;;17.88;4.13;;;2.60;99.90;;;;;;2089099;28;20175;-69
2021/12/15 04:12:34;;;;;;;43.22;5.55;;;2.60;99.90;;;;;;2089093;28;20197;-69
2021/12/15 04:13:36;;;;;;;51.17;6.60;;;2.50;99.90;;;;;;2088943;28;20274;-70
2021/12/15 04:14:54;;;;;;;77.95;6.38;;;2.50;99.90;;;;;;2080771;28;20187;-70
2021/12/15 04:16:04;;;;;;;60.72;6.10;;;2.50;99.90;;;;;;2083336;28;20178;-69
2021/12/15 04:17:07;;;;;;;72.60;7.97;;;2.50;99.90;;;;;;2084236;28;20174;-69
2021/12/15 04:18:07;;;;;;;50.25;6.18;;;2.40;99.90;;;;;;2089200;28;20266;-70
2021/12/15 04:19:20;;;;;;;117.10;10.83;;;2.40;99.90;;;;;;2089622;28;20174;-69
2021/12/15 04:20:25;;;;;;;60.97;6.68;;;2.40;99.90;;;;;;2088981;28;20246;-71
2021/12/15 04:21:26;;;;;;;90.70;6.75;;;2.40;99.90;;;;;;2089078;28;20259;-71
2021/12/15 04:22:27;;;;;;;36.47;4.32;;;2.40;99.90;;;;;;2088787;28;20186;-71
2021/12/15 04:23:28;;;;;;;49.67;6.07;;;2.40;99.90;;;;;;2080764;28;20212;-71
2021/12/15 04:24:29;;;;;;;116.90;9.53;;;2.40;99.90;;;;;;2088976;28;20176;-71
2021/12/15 04:25:34;;;;;;;106.88;9.07;;;2.30;99.90;;;;;;2089611;28;20184;-71
2021/12/15 04:26:35;;;;;;;134.30;10.10;;;2.30;99.90;;;;;;2088958;28;20191;-71
2021/12/15 04:27:36;;;;;;;60.20;5.73;;;2.30;99.90;;;;;;2089067;28;20181;-71
2021/12/15 04:28:37;;;;;;;94.30;8.90;;;2.30;99.90;;;;;;2088742;28;20234;-71
2021/12/15 04:29:39;;;;;;;63.03;7.30;;;2.40;99.90;;;;;;2088990;28;20691;-71
2021/12/15 04:30:46;;;;;;;96.50;6.82;;;2.30;99.90;;;;;;2088816;28;20182;-71
2021/12/15 04:32:05;;;;;;;55.67;6.47;;;2.30;99.90;;;;;;2089327;28;20178;-71
2021/12/15 04:33:26;;;;;;;39.72;6.63;;;2.30;99.90;;;;;;2088901;28;20169;-71
2021/12/15 04:34:27;;;;;;;52.20;6.93;;;2.30;99.90;;;;;;2083542;28;20682;-71
2021/12/15 04:35:28;;;;;;;34.35;4.75;;;2.30;99.90;;;;;;2088560;28;20245;-71
2021/12/15 04:36:36;;;;;;;37.80;5.05;;;2.20;99.90;;;;;;2088826;28;20187;-71
2021/12/15 04:37:37;;;;;;;89.45;7.93;;;2.20;99.90;;;;;;2081367;28;20222;-71
2021/12/15 04:38:41;;;;;;;84.47;5.13;;;2.10;99.90;;;;;;2080602;28;20205;-71
2021/12/15 04:39:42;;;;;;;32.42;3.72;;;2.10;99.90;;;;;;2080948;28;20170;-71
2021/12/15 04:40:43;;;;;;;28.93;4.90;;;2.10;99.90;;;;;;2088726;28;20187;-71
2021/12/15 04:41:48;;;;;;;40.70;5.47;;;2.10;99.90;;;;;;2089383;28;20680;-71
2021/12/15 04:42:50;;;;;;;53.78;5.78;;;2.00;99.90;;;;;;2088855;28;20172;-71
2021/12/15 04:43:58;;;;;;;26.85;4.53;;;2.10;99.90;;;;;;2081230;28;20186;-71
2021/12/15 04:45:00;;;;;;;35.55;4.25;;;2.10;99.90;;;;;;2088716;28;20214;-71
2021/12/15 04:46:05;;;;;;;33.78;5.50;;;2.10;99.90;;;;;;2088747;28;20181;-71
2021/12/15 04:47:10;;;;;;;90.18;9.40;;;2.10;99.90;;;;;;2081124;28;20156;-71
2021/12/15 04:48:12;;;;;;;48.20;5.78;;;2.10;99.90;;;;;;2081217;28;20168;-71
2021/12/15 04:49:17;;;;;;;24.25;4.07;;;2.10;99.90;;;;;;2080738;28;20264;-71
2021/12/15 04:50:22;;;;;;;32.42;4.47;;;2.10;99.90;;;;;;2088865;28;20163;-71
2021/12/15 04:51:24;;;;;;;30.65;3.83;;;2.00;99.90;;;;;;2089224;28;20205;-70
2021/12/15 04:52:28;;;;;;;39.53;4.75;;;2.00;99.90;;;;;;2088787;28;20197;-71
2021/12/15 04:53:28;;;;;;;34.20;4.47;;;2.00;99.90;;;;;;2080935;28;20701;-71
2021/12/15 04:54:30;;;;;;;29.40;3.83;;;1.90;99.90;;;;;;2088649;28;20184;-71
2021/12/15 04:55:34;;;;;;;25.35;4.43;;;1.90;99.90;;;;;;2089215;28;20219;-71
2021/12/15 04:56:35;;;;;;;48.03;5.65;;;1.90;99.90;;;;;;2088699;28;20186;-71
2021/12/15 04:57:36;;;;;;;53.47;6.05;;;1.90;99.90;;;;;;2080377;28;20206;-71
2021/12/15 04:58:37;;;;;;;46.70;9.03;;;1.90;99.90;;;;;;2080517;28;20200;-71
2021/12/15 04:59:39;;;;;;;75.70;6.97;;;1.90;99.90;;;;;;2088698;28;20174;-71
2021/12/15 05:00:52;;;;;;;41.15;5.15;;;1.90;99.90;;;;;;2088761;28;20182;-71
2021/12/15 05:01:54;;;;;;;58.97;6.38;;;1.80;99.90;;;;;;2088812;28;20168;-71
2021/12/15 05:02:56;;;;;;;95.00;7.38;;;1.80;99.90;;;;;;2088680;28;20185;-71
2021/12/15 05:03:57;;;;;;;38.17;4.88;;;1.80;99.90;;;;;;2088858;28;20180;-71
2021/12/15 05:04:58;;;;;;;34.20;4.07;;;1.80;99.90;;;;;;2080390;28;20180;-71
2021/12/15 05:05:59;;;;;;;63.17;7.40;;;1.80;99.90;;;;;;2080423;28;20696;-71
2021/12/15 05:07:00;;;;;;;40.50;4.85;;;1.80;99.90;;;;;;2088606;28;20179;-71
2021/12/15 05:08:02;;;;;;;54.28;6.47;;;1.80;99.90;;;;;;2088485;28;20187;-71
2021/12/15 05:09:05;;;;;;;54.58;6.57;;;1.80;99.90;;;;;;2088842;28;20241;-71
2021/12/15 05:10:08;;;;;;;23.60;4.20;;;1.80;99.90;;;;;;2089368;28;20173;-71
2021/12/15 05:11:11;;;;;;;40.35;4.72;;;1.80;99.90;;;;;;2097167;28;20182;-71
2021/12/15 05:12:11;;;;;;;36.15;4.95;;;1.80;99.90;;;;;;2098525;28;20183;-71
2021/12/15 05:13:13;;;;;;;32.33;4.53;;;1.80;99.90;;;;;;2091056;28;20173;-71
2021/12/15 05:14:14;;;;;;;34.33;4.82;;;1.90;99.90;;;;;;2090347;28;20172;-71
2021/12/15 05:15:15;;;;;;;38.77;5.87;;;1.90;99.90;;;;;;2090168;28;20201;-70
2021/12/15 05:16:17;;;;;;;31.88;4.75;;;1.90;99.90;;;;;;2090405;28;20169;-71
2021/12/15 05:17:18;;;;;;;22.30;3.53;;;1.90;99.90;;;;;;2082053;28;20755;-71
2021/12/15 05:18:19;;;;;;;46.55;6.60;;;1.90;99.90;;;;;;2090303;28;20194;-71
2021/12/15 05:19:21;;;;;;;40.20;6.95;;;1.90;99.90;;;;;;2090330;28;20194;-71
2021/12/15 05:20:23;;;;;;;38.75;5.90;;;1.90;99.90;;;;;;2082342;28;20932;-71
2021/12/15 05:21:24;;;;;;;24.13;4.18;;;2.00;99.90;;;;;;2089985;28;20721;-70
2021/12/15 05:22:25;;;;;;;34.80;4.28;;;1.90;99.90;;;;;;2090411;28;20680;-71
2021/12/15 05:23:30;;;;;;;56.92;6.13;;;1.90;99.90;;;;;;2090268;28;20186;-70
2021/12/15 05:24:31;;;;;;;40.53;9.23;;;1.80;99.90;;;;;;2090767;28;20173;-71
2021/12/15 05:25:33;;;;;;;47.53;9.07;;;1.80;99.90;;;;;;2090886;28;20188;-71
2021/12/15 05:26:33;;;;;;;32.17;6.97;;;1.80;99.90;;;;;;2090394;28;20205;-71
2021/12/15 05:27:35;;;;;;;26.77;5.10;;;1.80;99.90;;;;;;2081937;28;20185;-71
2021/12/15 05:28:36;;;;;;;18.15;3.75;;;1.80;99.90;;;;;;2082238;28;20291;-71
2021/12/15 05:29:39;;;;;;;32.83;5.03;;;1.80;99.90;;;;;;2082024;28;20189;-71
2021/12/15 05:30:41;;;;;;;27.20;4.35;;;1.80;99.90;;;;;;2090445;28;20185;-71
2021/12/15 05:31:42;;;;;;;18.63;3.90;;;1.80;99.90;;;;;;2090792;28;20278;-71
2021/12/15 05:32:43;;;;;;;17.63;3.40;;;1.80;99.90;;;;;;2090907;28;20177;-71
2021/12/15 05:33:44;;;;;;;28.00;4.40;;;1.70;99.90;;;;;;2090106;28;20243;-71
2021/12/15 05:34:46;;;;;;;28.77;4.57;;;1.70;99.90;;;;;;2081753;28;20214;-71
2021/12/15 05:35:47;;;;;;;17.67;4.28;;;1.70;99.90;;;;;;2082163;28;20265;-71
2021/12/15 05:36:51;;;;;;;24.92;4.85;;;1.80;99.90;;;;;;2090269;28;20185;-71
2021/12/15 05:37:58;;;;;;;30.98;4.25;;;1.80;99.90;;;;;;2090141;28;20182;-71
2021/12/15 05:38:58;;;;;;;16.92;3.92;;;1.80;99.90;;;;;;2090281;28;20267;-71
2021/12/15 05:40:00;;;;;;;36.53;5.40;;;1.80;99.90;;;;;;2090137;28;20176;-71
2021/12/15 05:41:01;;;;;;;15.73;4.78;;;1.80;99.90;;;;;;2081966;28;20193;-71
2021/12/15 05:42:02;;;;;;;21.05;4.20;;;1.90;99.90;;;;;;2090182;28;20264;-71
2021/12/15 05:43:05;;;;;;;28.95;5.35;;;1.90;99.90;;;;;;2090290;28;20211;-71
2021/12/15 05:44:06;;;;;;;28.50;4.00;;;1.90;99.90;;;;;;2082295;28;20206;-71
2021/12/15 05:45:08;;;;;;;38.03;4.90;;;1.90;99.90;;;;;;2089951;28;20176;-71
2021/12/15 05:46:09;;;;;;;54.03;8.27;;;1.90;99.90;;;;;;2089830;28;20548;-71
2021/12/15 05:47:10;;;;;;;17.00;4.53;;;1.80;99.90;;;;;;2089864;28;20189;-71
2021/12/15 05:48:14;;;;;;;21.57;3.53;;;1.80;99.90;;;;;;2090598;28;20213;-71
2021/12/15 05:49:15;;;;;;;17.13;3.60;;;1.80;99.90;;;;;;2090120;28;20190;-71
2021/12/15 05:50:16;;;;;;;32.50;5.63;;;1.80;99.90;;;;;;2081724;28;20577;-71
2021/12/15 05:51:17;;;;;;;12.43;3.30;;;1.80;99.90;;;;;;2081891;28;20645;-71
2021/12/15 05:52:18;;;;;;;47.37;6.17;;;1.80;99.90;;;;;;2081828;28;20270;-70
2021/12/15 05:53:21;;;;;;;39.33;5.60;;;1.80;99.90;;;;;;2082086;28;20182;-71
2021/12/15 05:54:22;;;;;;;20.55;3.80;;;1.80;99.90;;;;;;2082067;28;20569;-71
2021/12/15 05:55:24;;;;;;;18.87;3.87;;;1.90;99.90;;;;;;2081790;28;20245;-71
2021/12/15 05:56:24;;;;;;;28.60;3.85;;;1.90;99.90;;;;;;2089775;28;20557;-69
2021/12/15 05:57:25;;;;;;;22.27;6.13;;;1.90;99.90;;;;;;2089902;28;20277;-69
2021/12/15 05:58:28;;;;;;;12.10;3.25;;;1.90;99.90;;;;;;2089901;28;20283;-69
2021/12/15 05:59:28;;;;;;;23.75;3.47;;;1.90;99.90;;;;;;2090037;28;20241;-69
2021/12/15 06:00:34;;;;;;;57.27;7.07;;;1.90;99.90;;;;;;2090253;28;20179;-70
2021/12/15 06:01:36;;;;;;;23.60;4.07;;;1.90;99.90;;;;;;2090079;28;20163;-70
2021/12/15 06:02:36;;;;;;;28.90;5.50;;;1.80;99.90;;;;;;2089993;28;20175;-69
2021/12/15 06:03:38;;;;;;;51.23;7.77;;;1.80;99.90;;;;;;2090793;28;20616;-69
2021/12/15 06:04:39;;;;;;;23.77;6.07;;;1.80;99.90;;;;;;2089868;28;20177;-69
2021/12/15 06:05:39;;;;;;;56.27;4.60;;;1.80;99.90;;;;;;2089934;28;20178;-69
2021/12/15 06:06:42;;;;;;;41.60;4.27;;;1.90;99.90;;;;;;2089948;28;20170;-69
2021/12/15 06:07:43;;;;;;;167.40;12.07;;;1.90;99.90;;;;;;2073847;28;20274;-69